createdAt,value
2018-06-09T00:00:40.916Z,21.07
2018-06-09T00:03:09.821Z,21.07
2018-06-09T00:05:38.773Z,21.03
2018-06-09T00:08:11.319Z,21.04
2018-06-09T00:10:40.287Z,21.02
2018-06-09T00:13:09.266Z,20.95
2018-06-09T00:15:38.198Z,20.97
2018-06-09T00:18:07.097Z,20.95
2018-06-09T00:20:36.029Z,20.99
2018-06-09T00:23:05.017Z,20.98
2018-06-09T00:25:33.983Z,20.93
2018-06-09T00:28:02.994Z,20.88
2018-06-09T00:30:31.948Z,20.86
2018-06-09T00:33:00.882Z,20.78
2018-06-09T00:35:29.820Z,20.83
2018-06-09T00:37:58.856Z,20.81
2018-06-09T00:40:27.766Z,20.76
2018-06-09T00:42:56.700Z,20.80
2018-06-09T00:45:25.611Z,20.75
2018-06-09T00:47:54.538Z,20.75
2018-06-09T00:50:23.448Z,20.63
2018-06-09T00:52:52.379Z,20.64
2018-06-09T00:55:21.301Z,20.66
2018-06-09T00:57:53.993Z,20.67
2018-06-09T01:00:23.051Z,20.63
2018-06-09T01:02:51.993Z,20.58
2018-06-09T01:05:20.903Z,20.54
2018-06-09T01:07:49.848Z,20.50
2018-06-09T01:10:18.944Z,20.46
2018-06-09T01:12:48.741Z,20.39
2018-06-09T01:15:17.680Z,20.45
2018-06-09T01:17:46.583Z,20.46
2018-06-09T01:20:15.607Z,20.50
2018-06-09T01:22:44.549Z,20.48
2018-06-09T01:25:13.451Z,20.47
2018-06-09T01:27:42.361Z,20.41
2018-06-09T01:30:11.314Z,20.30
2018-06-09T01:32:40.241Z,20.28
2018-06-09T01:35:09.185Z,20.29
2018-06-09T01:37:38.129Z,20.32
2018-06-09T01:40:07.041Z,20.32
2018-06-09T01:42:35.947Z,20.28
2018-06-09T01:45:05.149Z,20.25
2018-06-09T01:47:34.031Z,20.26
2018-06-09T01:50:02.990Z,20.16
2018-06-09T01:52:31.891Z,20.14
2018-06-09T01:55:00.813Z,20.14
2018-06-09T01:57:29.744Z,20.18
2018-06-09T01:59:58.997Z,20.19
2018-06-09T02:02:27.902Z,20.17
2018-06-09T02:04:56.817Z,20.14
2018-06-09T02:07:25.738Z,20.13
2018-06-09T02:09:54.651Z,20.06
2018-06-09T02:12:23.570Z,20.07
2018-06-09T02:14:52.509Z,20.02
2018-06-09T02:17:21.729Z,19.93
2018-06-09T02:19:50.668Z,19.93
2018-06-09T02:22:20.036Z,19.91
2018-06-09T02:24:48.953Z,19.92
2018-06-09T02:27:17.878Z,19.93
2018-06-09T02:29:46.804Z,19.87
2018-06-09T02:32:15.756Z,19.83
2018-06-09T02:34:44.687Z,19.85
2018-06-09T02:37:13.612Z,19.84
2018-06-09T02:39:42.549Z,19.74
2018-06-09T02:42:11.447Z,19.77
2018-06-09T02:44:40.585Z,19.75
2018-06-09T02:47:09.473Z,19.79
2018-06-09T02:49:38.398Z,19.77
2018-06-09T02:52:07.324Z,19.74
2018-06-09T02:54:36.272Z,19.75
2018-06-09T02:57:05.194Z,19.71
2018-06-09T02:59:34.083Z,19.72
2018-06-09T03:02:03.380Z,19.69
2018-06-09T03:04:32.304Z,19.60
2018-06-09T03:07:01.283Z,19.53
2018-06-09T03:09:30.463Z,19.56
2018-06-09T03:11:59.426Z,19.64
2018-06-09T03:14:28.363Z,19.64
2018-06-09T03:16:57.274Z,19.66
2018-06-09T03:19:26.207Z,19.68
2018-06-09T03:21:55.139Z,19.69
2018-06-09T03:24:24.068Z,19.67
2018-06-09T03:26:52.979Z,19.62
2018-06-09T03:29:22.094Z,19.61
2018-06-09T03:31:51.041Z,19.53
2018-06-09T03:34:19.953Z,19.53
2018-06-09T03:36:48.888Z,19.60
2018-06-09T03:39:17.875Z,19.58
2018-06-09T03:41:47.098Z,19.59
2018-06-09T03:44:15.997Z,19.60
2018-06-09T03:46:44.915Z,19.60
2018-06-09T03:49:13.988Z,19.55
2018-06-09T03:51:42.898Z,19.51
2018-06-09T03:54:11.804Z,19.54
2018-06-09T03:56:40.740Z,19.54
2018-06-09T03:59:09.684Z,19.57
2018-06-09T04:01:38.610Z,19.59
2018-06-09T04:04:07.675Z,19.56
2018-06-09T04:06:36.583Z,19.57
2018-06-09T04:09:07.725Z,19.57
2018-06-09T04:11:36.731Z,19.59
2018-06-09T04:14:05.653Z,19.58
2018-06-09T04:16:35.487Z,19.53
2018-06-09T04:19:04.426Z,19.50
2018-06-09T04:21:33.330Z,19.57
2018-06-09T04:24:02.273Z,19.56
2018-06-09T04:26:31.202Z,19.48
2018-06-09T04:29:00.140Z,19.53
2018-06-09T04:31:29.661Z,19.63
2018-06-09T04:33:58.753Z,19.57
2018-06-09T04:36:27.675Z,19.46
2018-06-09T04:38:56.616Z,19.58
2018-06-09T04:41:25.556Z,19.59
2018-06-09T04:43:54.480Z,19.49
2018-06-09T04:46:23.372Z,19.54
2018-06-09T04:48:52.311Z,19.62
2018-06-09T04:51:21.256Z,19.67
2018-06-09T04:53:50.193Z,19.66
2018-06-09T04:56:19.118Z,19.73
2018-06-09T04:58:48.037Z,19.69
2018-06-09T05:01:17.009Z,19.70
2018-06-09T05:03:45.920Z,19.67
2018-06-09T05:06:14.877Z,19.71
2018-06-09T05:08:43.816Z,19.64
2018-06-09T05:11:12.722Z,19.68
2018-06-09T05:13:41.631Z,19.72
2018-06-09T05:16:10.589Z,19.81
2018-06-09T05:18:39.552Z,19.88
2018-06-09T05:21:08.488Z,19.88
2018-06-09T05:23:37.428Z,19.86
2018-06-09T05:26:06.360Z,19.95
2018-06-09T05:28:35.293Z,19.96
2018-06-09T05:31:04.215Z,19.95
2018-06-09T05:33:33.149Z,19.86
2018-06-09T05:36:02.054Z,19.87
2018-06-09T05:38:30.982Z,19.93
2018-06-09T05:40:59.886Z,19.87
2018-06-09T05:43:28.911Z,19.85
2018-06-09T05:45:57.849Z,19.98
2018-06-09T05:48:27.194Z,19.89
2018-06-09T05:50:56.144Z,20.05
2018-06-09T05:53:25.057Z,20.01
2018-06-09T05:55:53.986Z,19.98
2018-06-09T05:58:22.883Z,20.00
2018-06-09T06:00:51.818Z,20.08
2018-06-09T06:03:26.738Z,20.05
2018-06-09T06:05:55.669Z,19.99
2018-06-09T06:08:24.636Z,19.99
2018-06-09T06:10:53.514Z,20.10
2018-06-09T06:13:22.446Z,20.12
2018-06-09T06:15:51.374Z,20.21
2018-06-09T06:18:20.318Z,20.19
2018-06-09T06:20:49.264Z,20.26
2018-06-09T06:23:18.178Z,20.27
2018-06-09T06:25:47.106Z,20.34
2018-06-09T06:28:16.030Z,20.39
2018-06-09T06:30:45.458Z,20.45
2018-06-09T06:33:15.032Z,20.44
2018-06-09T06:35:44.068Z,20.41
2018-06-09T06:38:13.002Z,20.41
2018-06-09T06:40:41.949Z,20.41
2018-06-09T06:43:10.856Z,20.47
2018-06-09T06:45:39.818Z,20.47
2018-06-09T06:48:08.732Z,20.53
2018-06-09T06:50:37.668Z,20.53
2018-06-09T06:53:06.620Z,20.57
2018-06-09T06:55:35.582Z,20.56
2018-06-09T06:58:04.496Z,20.54
2018-06-09T07:00:33.433Z,20.64
2018-06-09T07:03:02.377Z,20.71
2018-06-09T07:05:31.302Z,20.75
2018-06-09T07:08:00.259Z,20.75
2018-06-09T07:10:29.123Z,20.75
2018-06-09T07:12:58.076Z,20.73
2018-06-09T07:15:27.035Z,20.75
2018-06-09T07:17:55.964Z,20.81
2018-06-09T07:20:24.907Z,20.81
2018-06-09T07:22:53.822Z,20.84
2018-06-09T07:25:22.759Z,20.86
2018-06-09T07:27:51.692Z,20.95
2018-06-09T07:30:20.631Z,20.91
2018-06-09T07:32:49.595Z,21.00
2018-06-09T07:35:18.520Z,21.10
2018-06-09T07:37:47.469Z,21.08
2018-06-09T07:40:16.420Z,21.15
2018-06-09T07:42:45.344Z,21.19
2018-06-09T07:45:14.264Z,21.21
2018-06-09T07:47:43.169Z,21.17
2018-06-09T07:50:12.084Z,21.17
2018-06-09T07:52:41.046Z,21.21
2018-06-09T07:55:09.923Z,21.20
2018-06-09T07:57:42.681Z,21.24
2018-06-09T08:00:15.568Z,21.26
2018-06-09T08:02:44.578Z,21.26
2018-06-09T08:05:13.496Z,21.21
2018-06-09T08:07:42.438Z,21.26
2018-06-09T08:10:11.344Z,21.34
2018-06-09T08:12:40.273Z,21.32
2018-06-09T08:15:09.214Z,21.25
2018-06-09T08:17:38.112Z,21.34
2018-06-09T08:20:07.128Z,21.42
2018-06-09T08:22:36.050Z,21.39
2018-06-09T08:25:05.041Z,21.37
2018-06-09T08:27:33.991Z,21.42
2018-06-09T08:30:02.922Z,21.49
2018-06-09T08:32:31.894Z,21.48
2018-06-09T08:35:00.788Z,21.44
2018-06-09T08:37:30.595Z,21.55
2018-06-09T08:39:59.540Z,21.54
2018-06-09T08:42:28.475Z,21.55
2018-06-09T08:44:57.422Z,21.56
2018-06-09T08:47:26.342Z,21.59
2018-06-09T08:49:55.276Z,21.56
2018-06-09T08:52:24.337Z,21.57
2018-06-09T08:54:55.268Z,21.66
2018-06-09T08:57:24.203Z,21.70
2018-06-09T08:59:53.124Z,21.57
2018-06-09T09:02:22.080Z,21.66
2018-06-09T09:04:51.025Z,21.73
2018-06-09T09:07:19.923Z,21.75
2018-06-09T09:09:48.857Z,21.85
2018-06-09T09:12:21.588Z,21.90
2018-06-09T09:14:50.499Z,21.87
2018-06-09T09:17:19.501Z,21.98
2018-06-09T09:19:48.727Z,22.09
2018-06-09T09:22:17.652Z,22.12
2018-06-09T09:24:46.566Z,22.05
2018-06-09T09:27:15.501Z,22.14
2018-06-09T09:29:44.433Z,22.30
2018-06-09T09:32:13.640Z,22.32
2018-06-09T09:34:42.492Z,22.27
2018-06-09T09:37:11.454Z,22.26
2018-06-09T09:39:40.365Z,22.19
2018-06-09T09:42:09.267Z,22.26
2018-06-09T09:44:38.183Z,22.33
2018-06-09T09:47:07.092Z,22.27
2018-06-09T09:49:36.018Z,22.28
2018-06-09T09:52:04.984Z,22.27
2018-06-09T09:54:33.916Z,22.33
2018-06-09T09:57:02.867Z,22.39
2018-06-09T09:59:31.992Z,22.47
2018-06-09T10:02:00.919Z,22.49
2018-06-09T10:04:29.820Z,22.52
2018-06-09T10:06:58.767Z,22.56
2018-06-09T10:09:27.695Z,22.60
2018-06-09T10:11:56.622Z,22.63
2018-06-09T10:14:25.563Z,22.72
2018-06-09T10:16:54.456Z,22.80
2018-06-09T10:19:23.496Z,22.78
2018-06-09T10:21:52.459Z,22.85
2018-06-09T10:24:21.419Z,22.93
2018-06-09T10:26:50.337Z,22.95
2018-06-09T10:29:19.422Z,23.03
2018-06-09T10:31:48.318Z,23.07
2018-06-09T10:34:17.244Z,23.09
2018-06-09T10:36:46.151Z,23.12
2018-06-09T10:39:15.259Z,23.09
2018-06-09T10:41:44.151Z,23.12
2018-06-09T10:44:13.082Z,23.24
2018-06-09T10:46:42.013Z,23.21
2018-06-09T10:49:10.924Z,23.42
2018-06-09T10:51:39.857Z,23.46
2018-06-09T10:54:08.780Z,23.36
2018-06-09T10:56:37.714Z,23.48
2018-06-09T10:59:06.635Z,23.46
2018-06-09T11:01:35.524Z,23.47
2018-06-09T11:04:04.464Z,23.50
2018-06-09T11:06:33.376Z,23.51
2018-06-09T11:09:02.320Z,23.62
2018-06-09T11:11:31.234Z,23.78
2018-06-09T11:14:00.142Z,23.74
2018-06-09T11:16:29.065Z,23.81
2018-06-09T11:18:57.959Z,23.81
2018-06-09T11:21:26.921Z,23.97
2018-06-09T11:23:55.822Z,23.91
2018-06-09T11:26:24.740Z,24.08
2018-06-09T11:28:53.666Z,24.11
2018-06-09T11:31:22.578Z,24.08
2018-06-09T11:33:51.502Z,24.13
2018-06-09T11:36:20.400Z,24.22
2018-06-09T11:38:49.312Z,24.36
2018-06-09T11:41:18.254Z,24.47
2018-06-09T11:43:47.165Z,24.38
2018-06-09T11:46:16.096Z,24.32
2018-06-09T11:48:45.002Z,24.35
2018-06-09T11:51:13.918Z,24.51
2018-06-09T11:53:42.827Z,24.69
2018-06-09T11:56:11.738Z,24.74
2018-06-09T11:58:41.492Z,24.72
2018-06-09T12:01:10.373Z,24.60
2018-06-09T12:03:39.286Z,24.72
2018-06-09T12:06:08.219Z,24.73
2018-06-09T12:08:37.132Z,24.79
2018-06-09T12:11:06.071Z,24.94
2018-06-09T12:13:34.974Z,24.99
2018-06-09T12:16:04.749Z,25.13
2018-06-09T12:18:33.682Z,25.09
2018-06-09T12:21:02.594Z,25.10
2018-06-09T12:23:31.526Z,25.20
2018-06-09T12:26:00.461Z,25.18
2018-06-09T12:28:29.388Z,25.26
2018-06-09T12:30:58.306Z,25.41
2018-06-09T12:33:27.210Z,25.42
2018-06-09T12:35:56.154Z,25.34
2018-06-09T12:38:25.071Z,25.38
2018-06-09T12:40:53.975Z,25.37
2018-06-09T12:43:22.898Z,25.45
2018-06-09T12:45:51.833Z,25.58
2018-06-09T12:48:20.752Z,25.59
2018-06-09T12:50:49.666Z,25.62
2018-06-09T12:53:18.562Z,25.83
2018-06-09T12:55:47.475Z,25.82
2018-06-09T12:58:16.403Z,25.76
2018-06-09T13:00:45.335Z,25.76
2018-06-09T13:03:14.287Z,25.81
2018-06-09T13:05:43.224Z,25.80
2018-06-09T13:08:12.134Z,26.04
2018-06-09T13:10:41.042Z,26.01
2018-06-09T13:13:09.970Z,25.95
2018-06-09T13:15:38.874Z,26.04
2018-06-09T13:18:07.777Z,26.03
2018-06-09T13:20:36.689Z,26.05
2018-06-09T13:23:05.590Z,26.11
2018-06-09T13:25:34.516Z,25.99
2018-06-09T13:28:03.438Z,26.02
2018-06-09T13:30:32.738Z,25.79
2018-06-09T13:33:01.843Z,25.81
2018-06-09T13:35:30.777Z,25.98
2018-06-09T13:37:59.723Z,26.00
2018-06-09T13:40:28.679Z,26.09
2018-06-09T13:42:57.575Z,26.17
2018-06-09T13:45:26.517Z,26.16
2018-06-09T13:47:55.443Z,26.34
2018-06-09T13:50:24.364Z,26.49
2018-06-09T13:52:53.685Z,26.53
2018-06-09T13:55:22.636Z,26.29
2018-06-09T13:57:51.546Z,26.18
2018-06-09T14:00:20.476Z,26.41
2018-06-09T14:02:49.420Z,26.51
2018-06-09T14:05:18.327Z,26.23
2018-06-09T14:07:47.424Z,26.29
2018-06-09T14:10:16.349Z,26.35
2018-06-09T14:12:45.235Z,26.30
2018-06-09T14:15:14.153Z,26.43
2018-06-09T14:17:43.089Z,26.53
2018-06-09T14:20:12.000Z,26.38
2018-06-09T14:22:40.937Z,26.24
2018-06-09T14:25:09.874Z,26.14
2018-06-09T14:27:38.788Z,26.26
2018-06-09T14:30:07.689Z,26.15
2018-06-09T14:32:36.776Z,26.08
2018-06-09T14:35:05.666Z,26.03
2018-06-09T14:37:34.596Z,26.26
2018-06-09T14:40:03.550Z,26.44
2018-06-09T14:42:32.454Z,26.42
2018-06-09T14:45:01.831Z,26.32
2018-06-09T14:47:30.855Z,26.40
2018-06-09T14:49:59.841Z,26.54
2018-06-09T14:52:28.779Z,26.57
2018-06-09T14:54:57.825Z,26.56
2018-06-09T14:57:26.802Z,26.59
2018-06-09T14:59:55.748Z,26.63
2018-06-09T15:02:24.670Z,26.54
2018-06-09T15:04:53.670Z,26.55
2018-06-09T15:07:22.563Z,26.53
2018-06-09T15:09:51.512Z,26.49
2018-06-09T15:12:20.430Z,26.59
2018-06-09T15:14:49.338Z,26.61
2018-06-09T15:17:18.267Z,26.58
2018-06-09T15:19:47.167Z,26.57
2018-06-09T15:22:16.110Z,26.47
2018-06-09T15:24:45.042Z,26.55
2018-06-09T15:27:13.932Z,26.51
2018-06-09T15:29:42.855Z,26.47
2018-06-09T15:32:11.887Z,26.42
2018-06-09T15:34:40.869Z,26.39
2018-06-09T15:37:09.759Z,26.50
2018-06-09T15:39:38.659Z,26.58
2018-06-09T15:42:07.564Z,26.61
2018-06-09T15:44:36.471Z,26.48
2018-06-09T15:47:05.652Z,26.55
2018-06-09T15:49:34.566Z,26.55
2018-06-09T15:52:03.488Z,26.55
2018-06-09T15:54:32.457Z,26.42
2018-06-09T15:57:01.322Z,26.44
2018-06-09T15:59:30.252Z,26.53
2018-06-09T16:01:59.348Z,26.55
2018-06-09T16:04:28.281Z,26.51
2018-06-09T16:06:57.278Z,26.50
2018-06-09T16:09:26.198Z,26.56
2018-06-09T16:11:55.250Z,26.58
2018-06-09T16:14:27.501Z,26.57
2018-06-09T16:16:56.440Z,26.52
2018-06-09T16:19:25.370Z,26.49
2018-06-09T16:21:54.289Z,26.42
2018-06-09T16:24:23.226Z,26.44
2018-06-09T16:26:52.216Z,26.46
2018-06-09T16:29:21.450Z,26.55
2018-06-09T16:31:50.338Z,26.48
2018-06-09T16:34:19.240Z,26.47
2018-06-09T16:36:48.192Z,26.37
2018-06-09T16:39:18.139Z,26.40
2018-06-09T16:41:47.085Z,26.42
2018-06-09T16:44:16.046Z,26.48
2018-06-09T16:46:44.970Z,26.43
2018-06-09T16:49:13.927Z,26.37
2018-06-09T16:51:42.839Z,26.38
2018-06-09T16:54:11.777Z,26.48
2018-06-09T16:56:40.683Z,26.40
2018-06-09T16:59:09.606Z,26.40
2018-06-09T17:01:38.563Z,26.38
2018-06-09T17:04:07.614Z,26.31
2018-06-09T17:06:36.640Z,26.34
2018-06-09T17:09:08.219Z,26.39
2018-06-09T17:11:37.149Z,26.36
2018-06-09T17:14:06.088Z,26.29
2018-06-09T17:16:35.001Z,26.21
2018-06-09T17:19:03.922Z,26.11
2018-06-09T17:21:32.831Z,26.06
2018-06-09T17:24:01.738Z,26.01
2018-06-09T17:26:34.061Z,25.98
2018-06-09T17:29:02.989Z,25.95
2018-06-09T17:31:35.297Z,25.95
2018-06-09T17:34:04.249Z,25.91
2018-06-09T17:36:33.173Z,25.99
2018-06-09T17:39:02.076Z,26.02
2018-06-09T17:41:30.987Z,26.02
2018-06-09T17:43:59.959Z,25.97
2018-06-09T17:46:28.844Z,25.94
2018-06-09T17:48:57.804Z,25.90
2018-06-09T17:51:26.722Z,25.94
2018-06-09T17:53:55.662Z,25.91
2018-06-09T17:56:24.567Z,25.94
2018-06-09T17:58:53.459Z,25.92
2018-06-09T18:01:22.384Z,25.87
2018-06-09T18:03:51.331Z,25.87
2018-06-09T18:06:20.254Z,25.81
2018-06-09T18:08:49.166Z,25.77
2018-06-09T18:11:18.094Z,25.74
2018-06-09T18:13:47.036Z,25.76
2018-06-09T18:16:15.951Z,25.69
2018-06-09T18:18:44.875Z,25.67
2018-06-09T18:21:13.809Z,25.70
2018-06-09T18:23:42.735Z,25.67
2018-06-09T18:26:11.650Z,25.64
2018-06-09T18:28:40.554Z,25.59
2018-06-09T18:31:09.532Z,25.55
2018-06-09T18:33:38.483Z,25.52
2018-06-09T18:36:11.078Z,25.49
2018-06-09T18:38:40.358Z,25.52
2018-06-09T18:41:09.352Z,25.51
2018-06-09T18:43:38.829Z,25.46
2018-06-09T18:46:07.750Z,25.45
2018-06-09T18:48:36.674Z,25.46
2018-06-09T18:51:05.571Z,25.48
2018-06-09T18:53:34.531Z,25.49
2018-06-09T18:56:03.555Z,25.50
2018-06-09T18:58:32.483Z,25.43
2018-06-09T19:01:05.304Z,25.41
2018-06-09T19:03:34.230Z,25.39
2018-06-09T19:06:03.195Z,25.41
2018-06-09T19:08:32.122Z,25.37
2018-06-09T19:11:01.041Z,25.35
2018-06-09T19:13:29.970Z,25.29
2018-06-09T19:15:59.146Z,25.24
2018-06-09T19:18:28.050Z,25.17
2018-06-09T19:20:56.963Z,25.14
2018-06-09T19:23:25.897Z,25.13
2018-06-09T19:25:54.861Z,25.10
2018-06-09T19:28:23.801Z,25.03
2018-06-09T19:30:52.693Z,24.97
2018-06-09T19:33:21.666Z,24.86
2018-06-09T19:35:50.511Z,24.81
2018-06-09T19:38:19.475Z,24.79
2018-06-09T19:40:48.468Z,24.75
2018-06-09T19:43:17.328Z,24.71
2018-06-09T19:45:48.255Z,24.63
2018-06-09T19:48:17.211Z,24.58
2018-06-09T19:50:46.155Z,24.54
2018-06-09T19:53:15.073Z,24.45
2018-06-09T19:55:44.078Z,24.38
2018-06-09T19:58:13.009Z,24.31
2018-06-09T20:00:45.542Z,24.30
2018-06-09T20:03:14.538Z,24.26
2018-06-09T20:05:43.422Z,24.23
2018-06-09T20:08:12.363Z,24.16
2018-06-09T20:10:41.298Z,24.08
2018-06-09T20:13:10.244Z,24.04
2018-06-09T20:15:39.185Z,23.99
2018-06-09T20:18:08.097Z,23.96
2018-06-09T20:20:37.032Z,23.90
2018-06-09T20:23:06.073Z,23.88
2018-06-09T20:25:35.024Z,23.81
2018-06-09T20:28:07.713Z,23.74
2018-06-09T20:30:40.819Z,23.70
2018-06-09T20:33:09.770Z,23.70
2018-06-09T20:35:38.682Z,23.68
2018-06-09T20:38:07.611Z,23.69
2018-06-09T20:40:36.567Z,23.68
2018-06-09T20:43:05.476Z,23.67
2018-06-09T20:45:34.449Z,23.62
2018-06-09T20:48:03.412Z,23.56
2018-06-09T20:50:32.400Z,23.49
2018-06-09T20:53:04.750Z,23.52
2018-06-09T20:55:33.658Z,23.55
2018-06-09T20:58:02.747Z,23.64
2018-06-09T21:00:31.684Z,23.69
2018-06-09T21:03:00.606Z,23.70
2018-06-09T21:05:29.556Z,23.86
2018-06-09T21:07:58.480Z,23.89
2018-06-09T21:10:27.429Z,23.83
2018-06-09T21:12:56.338Z,23.86
2018-06-09T21:15:25.318Z,23.90
2018-06-09T21:17:54.242Z,23.91
2018-06-09T21:20:23.166Z,23.90
2018-06-09T21:22:52.124Z,23.90
2018-06-09T21:25:21.033Z,23.91
2018-06-09T21:27:55.294Z,23.88
2018-06-09T21:30:29.598Z,23.85
2018-06-09T21:33:03.831Z,23.81
2018-06-09T21:35:59.128Z,23.80
2018-06-09T21:38:28.159Z,23.78
2018-06-09T21:42:00.423Z,23.75
2018-06-09T21:44:34.704Z,23.70
2018-06-09T21:47:03.658Z,23.67
2018-06-09T21:49:32.720Z,23.67
2018-06-09T21:52:01.634Z,23.64
2018-06-09T21:54:30.588Z,23.64
2018-06-09T21:56:59.533Z,23.63
2018-06-09T21:59:28.492Z,23.58
2018-06-09T22:01:57.416Z,23.59
2018-06-09T22:04:26.442Z,23.55
2018-06-09T22:06:55.377Z,23.51
2018-06-09T22:09:24.267Z,23.44
2018-06-09T22:11:56.665Z,23.39
2018-06-09T22:14:25.676Z,23.41
2018-06-09T22:16:54.667Z,23.41
2018-06-09T22:19:23.653Z,23.38
2018-06-09T22:21:52.578Z,23.39
2018-06-09T22:24:21.615Z,23.35
2018-06-09T22:26:50.564Z,23.36
2018-06-09T22:29:19.872Z,23.36
2018-06-09T22:31:48.860Z,23.29
2018-06-09T22:34:17.843Z,23.31
2018-06-09T22:36:47.189Z,23.27
2018-06-09T22:39:16.111Z,23.28
2018-06-09T22:41:45.077Z,23.16
2018-06-09T22:44:13.934Z,23.19
2018-06-09T22:46:42.889Z,23.20
2018-06-09T22:49:11.804Z,23.20
2018-06-09T22:51:40.716Z,23.16
2018-06-09T22:54:09.663Z,23.09
2018-06-09T22:56:38.584Z,23.09
2018-06-09T22:59:07.596Z,23.09
2018-06-09T23:01:36.519Z,23.12
2018-06-09T23:04:05.459Z,23.03
2018-06-09T23:06:34.630Z,23.07
2018-06-09T23:09:03.677Z,23.05
2018-06-09T23:11:32.715Z,22.96
2018-06-09T23:14:01.680Z,22.96
2018-06-09T23:16:30.575Z,22.89
2018-06-09T23:18:59.514Z,22.83
2018-06-09T23:21:28.595Z,22.86
2018-06-09T23:23:57.490Z,22.74
2018-06-09T23:26:26.404Z,22.68
2018-06-09T23:28:55.303Z,22.57
2018-06-09T23:31:24.207Z,22.52
2018-06-09T23:33:53.119Z,22.55
2018-06-09T23:36:22.017Z,22.58
2018-06-09T23:38:50.935Z,22.59
2018-06-09T23:41:19.826Z,22.62
2018-06-09T23:43:48.728Z,22.58
2018-06-09T23:46:17.635Z,22.47
2018-06-09T23:48:46.535Z,22.44
2018-06-09T23:51:15.768Z,22.48
2018-06-09T23:53:44.982Z,22.41
2018-06-09T23:56:13.933Z,22.40
2018-06-09T23:58:42.807Z,22.36
